Carrboro, North Carolina
Current Conditions -  °F | °C
As of 7:56 AM on Thursday 23 Oct 2014 (Local Time) from KIGX Reporting Station
Clear Clear  
Wind Chill: 44°   Ceiling: Unl
Heat Index: 47°   Visibility: 10mi
Dew Point: 40°   Wind: 7mph
Humidity: 77%   Direction: 290°WNW
Pressure: 30.02"   Gusts: NA
Location:  35.91°N, 79.08°W
Report Text: KIGX 231156Z AUTO 29006KT 10SM CLR 08/04 A3002 RMK AO2 SLP165 T00830044 10083 20072 53003
Loading
Personal Weather Stations






























Interactive Weather Map
Tropical Storm Tracking
New forecast layout! Learn more

10-Day Weather Forecast

Advertisements
Track Severe Weather on mobile